Westrac — WTH4325 — position and weather

sailwx.info

Track history (hours):
 
Tides and Currents Weather Stations Pressure Air Temp Water Temp Dewpoint Dewpoint Depression Visibility Wind Speed Wind Dir Waves Ship Positions

Westrac

Owner: WESTERN TOWBOAT CO, SEATTLE, WA. More information available from US FCC via Universal Licensing System and Coast Guard Vessel Documentation Center.

Last reported at 2016-May-02 18:33 UTC. Time now 2016-May-02 19:21 UTC.
Position N 47°34' W 122°21'.

Length 23 m; draft 5 m.

Type: Tug. MMSI: 366993010.

Date/timePositionNaut miles runAvg speedWind from/ knotsBaromVisibWave heightAir tempDewpointWater temp
2016-May-02 18:33N 47°34' W 122°21'1 1.1
2016-May-02 17:33N 47°33' W 122°21'0 0.1
2016-May-02 16:33N 47°33' W 122°21'1 1.2
2016-May-02 15:33N 47°34' W 122°21'1 0.5
2016-May-02 14:33N 47°34' W 122°21'1 1.3
2016-May-02 13:33N 47°35' W 122°22'1 0.1
2016-May-02 01:12N 47°34' W 122°21'2 2.8
2016-May-02 00:33N 47°32' W 122°20'3 3.0
2016-May-01 23:33N 47°35' W 122°20'0 0.4
2016-May-01 22:33N 47°36' W 122°21'2 2.4
2016-May-01 21:33N 47°33' W 122°21'3 2.7
2016-May-01 20:34N 47°36' W 122°22'2 1.8
2016-May-01 19:33N 47°34' W 122°21'2 0.1
2016-Apr-30 18:32N 47°32' W 122°20'0 0.5
2016-Apr-30 17:33N 47°33' W 122°20'2 2.4
2016-Apr-30 16:33N 47°35' W 122°22'1 0.9
2016-Apr-30 15:33N 47°35' W 122°20'1 0.1
2016-Apr-30 03:34N 47°34' W 122°21'1 1.4
2016-Apr-30 02:32N 47°33' W 122°20'0 0.2
2016-Apr-30 00:32N 47°33' W 122°21'0 0.0
2016-Apr-29 23:33N 47°33' W 122°21'0 0.1
2016-Apr-29 22:34N 47°33' W 122°20'3 3.2
2016-Apr-29 21:34N 47°36' W 122°23'2 2.2
2016-Apr-29 20:33N 47°34' W 122°21'0 0.0
2016-Apr-29 19:33N 47°34' W 122°21'0 0.0
2016-Apr-29 18:34N 47°34' W 122°21'1 1.1
2016-Apr-29 17:33N 47°33' W 122°20'3 2.7
2016-Apr-29 16:33N 47°35' W 122°22'1 0.6
2016-Apr-29 15:34N 47°35' W 122°21'1 0.6
2016-Apr-29 14:33N 47°35' W 122°21'2 0.2
2016-Apr-28 23:33N 47°33' W 122°20'3 3.1
2016-Apr-28 22:33N 47°36' W 122°22'1 1.1
2016-Apr-28 21:33N 47°35' W 122°22'0 0.0
2016-Apr-28 20:33N 47°35' W 122°21'2 2.3
2016-Apr-28 19:33N 47°33' W 122°20'2 1.6
2016-Apr-28 18:34N 47°34' W 122°21'0 0.4
2016-Apr-28 17:33N 47°34' W 122°21'0 0.0
2016-Apr-28 16:33N 47°34' W 122°21'0 0.0
2016-Apr-28 15:33N 47°34' W 122°21'1 1.1
2016-Apr-28 14:33N 47°35' W 122°21'0 0.0
2016-Apr-28 01:33N 47°35' W 122°22'2 2.4
2016-Apr-28 00:34N 47°33' W 122°20'0 0.0
2016-Apr-27 23:33N 47°33' W 122°20'1 1.4
2016-Apr-27 22:33N 47°34' W 122°21'0 0.0
2016-Apr-27 21:33N 47°34' W 122°21'0 0.0
2016-Apr-27 20:33N 47°34' W 122°21'2 1.6
2016-Apr-27 19:33N 47°35' W 122°22'0 0.1
2016-Apr-27 18:33N 47°35' W 122°22'2 1.6
2016-Apr-27 17:33N 47°34' W 122°21'1 1.5
2016-Apr-27 16:33N 47°33' W 122°20'3 2.7
2016-Apr-27 15:33N 47°35' W 122°21'1 1.5
2016-Apr-27 14:33N 47°34' W 122°21'0 0.0
2016-Apr-27 02:10N 47°34' W 122°21'1 1.4
2016-Apr-27 01:34N 47°33' W 122°21'2 2.1
2016-Apr-27 00:34N 47°35' W 122°22'1 0.1
2016-Apr-26 00:05N 47°34' W 122°21'1 2.7
2016-Apr-25 23:33N 47°33' W 122°20'2 2.3
2016-Apr-25 22:33N 47°35' W 122°22'1 0.9
2016-Apr-25 21:33N 47°34' W 122°21'0 0.0
2016-Apr-25 20:33N 47°34' W 122°21'1 0.8
2016-Apr-25 19:33N 47°33' W 122°20'0 0.0
2016-Apr-25 18:33N 47°33' W 122°20'1 1.0
2016-Apr-25 17:33N 47°32' W 122°20'2 1.8
2016-Apr-25 16:33N 47°34' W 122°21'0 0.0
2016-Apr-25 08:22N 47°34' W 122°21'1 1.5
2016-Apr-25 07:33N 47°35' W 122°21'0 0.0
2016-Apr-24 21:33N 47°35' W 122°21'1 0.5
2016-Apr-24 20:33N 47°36' W 122°22'2 1.7
2016-Apr-24 19:33N 47°34' W 122°21'1 1.0
2016-Apr-24 18:33N 47°35' W 122°22'1 0.0
2016-Apr-23 18:33N 47°34' W 122°21'1 1.1
2016-Apr-23 17:33N 47°33' W 122°20'0 0.3
2016-Apr-23 16:33N 47°33' W 122°20'2 2.5
2016-Apr-23 15:33N 47°35' W 122°22'0 0.0
2016-Apr-23 03:33N 47°35' W 122°22'0 0.3
2016-Apr-23 02:33N 47°35' W 122°22'1 0.7
2016-Apr-23 01:34N 47°35' W 122°22'2 2.2
2016-Apr-23 00:34N 47°33' W 122°20'1 1.4
2016-Apr-22 23:34N 47°34' W 122°21'0 0.0
2016-Apr-22 22:34N 47°34' W 122°21'2 1.7
2016-Apr-22 21:34N 47°36' W 122°22'3 3.1
2016-Apr-22 20:33N 47°33' W 122°20'0 0.1
2016-Apr-22 19:33N 47°33' W 122°20'  
Track history (hours):
 
Tides and Currents Weather Stations Pressure Air Temp Water Temp Dewpoint Dewpoint Depression Visibility Wind Speed Wind Dir Waves Ship Positions

Westrac

Owner: WESTERN TOWBOAT CO, SEATTLE, WA. More information available from US FCC via Universal Licensing System and Coast Guard Vessel Documentation Center.

Last reported at 2016-May-02 18:33 UTC. Time now 2016-May-02 19:21 UTC.
Position N 47°34' W 122°21'.

Length 23 m; draft 5 m.

Type: Tug. MMSI: 366993010.

Date/timePositionNaut miles runAvg speedWind from/ knotsBaromVisibWave heightAir tempDewpointWater temp
2016-May-02 18:33N 47°34' W 122°21'1 1.1
2016-May-02 17:33N 47°33' W 122°21'0 0.1
2016-May-02 16:33N 47°33' W 122°21'1 1.2
2016-May-02 15:33N 47°34' W 122°21'1 0.5
2016-May-02 14:33N 47°34' W 122°21'1 1.3
2016-May-02 13:33N 47°35' W 122°22'1 0.1
2016-May-02 01:12N 47°34' W 122°21'2 2.8
2016-May-02 00:33N 47°32' W 122°20'3 3.0
2016-May-01 23:33N 47°35' W 122°20'0 0.4
2016-May-01 22:33N 47°36' W 122°21'2 2.4
2016-May-01 21:33N 47°33' W 122°21'3 2.7
2016-May-01 20:34N 47°36' W 122°22'2 1.8
2016-May-01 19:33N 47°34' W 122°21'2 0.1
2016-Apr-30 18:32N 47°32' W 122°20'0 0.5
2016-Apr-30 17:33N 47°33' W 122°20'2 2.4
2016-Apr-30 16:33N 47°35' W 122°22'1 0.9
2016-Apr-30 15:33N 47°35' W 122°20'1 0.1
2016-Apr-30 03:34N 47°34' W 122°21'1 1.4
2016-Apr-30 02:32N 47°33' W 122°20'0 0.2
2016-Apr-30 00:32N 47°33' W 122°21'0 0.0
2016-Apr-29 23:33N 47°33' W 122°21'0 0.1
2016-Apr-29 22:34N 47°33' W 122°20'3 3.2
2016-Apr-29 21:34N 47°36' W 122°23'2 2.2
2016-Apr-29 20:33N 47°34' W 122°21'0 0.0
2016-Apr-29 19:33N 47°34' W 122°21'0 0.0
2016-Apr-29 18:34N 47°34' W 122°21'1 1.1
2016-Apr-29 17:33N 47°33' W 122°20'3 2.7
2016-Apr-29 16:33N 47°35' W 122°22'1 0.6
2016-Apr-29 15:34N 47°35' W 122°21'1 0.6
2016-Apr-29 14:33N 47°35' W 122°21'2 0.2
2016-Apr-28 23:33N 47°33' W 122°20'3 3.1
2016-Apr-28 22:33N 47°36' W 122°22'1 1.1
2016-Apr-28 21:33N 47°35' W 122°22'0 0.0
2016-Apr-28 20:33N 47°35' W 122°21'2 2.3
2016-Apr-28 19:33N 47°33' W 122°20'2 1.6
2016-Apr-28 18:34N 47°34' W 122°21'0 0.4
2016-Apr-28 17:33N 47°34' W 122°21'0 0.0
2016-Apr-28 16:33N 47°34' W 122°21'0 0.0
2016-Apr-28 15:33N 47°34' W 122°21'1 1.1
2016-Apr-28 14:33N 47°35' W 122°21'0 0.0
2016-Apr-28 01:33N 47°35' W 122°22'2 2.4
2016-Apr-28 00:34N 47°33' W 122°20'0 0.0
2016-Apr-27 23:33N 47°33' W 122°20'1 1.4
2016-Apr-27 22:33N 47°34' W 122°21'0 0.0
2016-Apr-27 21:33N 47°34' W 122°21'0 0.0
2016-Apr-27 20:33N 47°34' W 122°21'2 1.6
2016-Apr-27 19:33N 47°35' W 122°22'0 0.1
2016-Apr-27 18:33N 47°35' W 122°22'2 1.6
2016-Apr-27 17:33N 47°34' W 122°21'1 1.5
2016-Apr-27 16:33N 47°33' W 122°20'3 2.7
2016-Apr-27 15:33N 47°35' W 122°21'1 1.5
2016-Apr-27 14:33N 47°34' W 122°21'0 0.0
2016-Apr-27 02:10N 47°34' W 122°21'1 1.4
2016-Apr-27 01:34N 47°33' W 122°21'2 2.1
2016-Apr-27 00:34N 47°35' W 122°22'1 0.1
2016-Apr-26 00:05N 47°34' W 122°21'1 2.7
2016-Apr-25 23:33N 47°33' W 122°20'2 2.3
2016-Apr-25 22:33N 47°35' W 122°22'1 0.9
2016-Apr-25 21:33N 47°34' W 122°21'0 0.0
2016-Apr-25 20:33N 47°34' W 122°21'1 0.8
2016-Apr-25 19:33N 47°33' W 122°20'0 0.0
2016-Apr-25 18:33N 47°33' W 122°20'1 1.0
2016-Apr-25 17:33N 47°32' W 122°20'2 1.8
2016-Apr-25 16:33N 47°34' W 122°21'0 0.0
2016-Apr-25 08:22N 47°34' W 122°21'1 1.5
2016-Apr-25 07:33N 47°35' W 122°21'0 0.0
2016-Apr-24 21:33N 47°35' W 122°21'1 0.5
2016-Apr-24 20:33N 47°36' W 122°22'2 1.7
2016-Apr-24 19:33N 47°34' W 122°21'1 1.0
2016-Apr-24 18:33N 47°35' W 122°22'1 0.0
2016-Apr-23 18:33N 47°34' W 122°21'1 1.1
2016-Apr-23 17:33N 47°33' W 122°20'0 0.3
2016-Apr-23 16:33N 47°33' W 122°20'2 2.5
2016-Apr-23 15:33N 47°35' W 122°22'0 0.0
2016-Apr-23 03:33N 47°35' W 122°22'0 0.3
2016-Apr-23 02:33N 47°35' W 122°22'1 0.7
2016-Apr-23 01:34N 47°35' W 122°22'2 2.2
2016-Apr-23 00:34N 47°33' W 122°20'1 1.4
2016-Apr-22 23:34N 47°34' W 122°21'0 0.0
2016-Apr-22 22:34N 47°34' W 122°21'2 1.7
2016-Apr-22 21:34N 47°36' W 122°22'3 3.1
2016-Apr-22 20:33N 47°33' W 122°20'0 0.1
2016-Apr-22 19:33N 47°33' W 122°20'  

Dump ship's entire track history